createdAt,value
2019-01-08T00:00:48.194Z,11.27
2019-01-08T00:03:19.995Z,10.07
2019-01-08T00:05:52.277Z,12.73
2019-01-08T00:08:23.676Z,10.80
2019-01-08T00:10:55.714Z,13.43
2019-01-08T00:13:27.152Z,10.20
2019-01-08T00:15:59.339Z,13.57
2019-01-08T00:18:31.656Z,12.57
2019-01-08T00:21:03.453Z,11.13
2019-01-08T00:23:34.479Z,9.27
2019-01-08T00:26:05.829Z,7.23
2019-01-08T00:28:43.099Z,9.63
2019-01-08T00:31:11.195Z,6.70
2019-01-08T00:33:43.942Z,10.37
2019-01-08T00:36:16.038Z,10.40
2019-01-08T00:38:47.812Z,9.47
2019-01-08T00:41:19.832Z,12.70
2019-01-08T00:43:51.817Z,10.30
2019-01-08T00:46:23.747Z,10.97
2019-01-08T00:48:55.418Z,10.17
2019-01-08T00:51:27.523Z,10.30
2019-01-08T00:53:59.467Z,13.03
2019-01-08T00:56:32.869Z,10.80
2019-01-08T00:59:04.636Z,12.47
2019-01-08T01:01:36.810Z,10.87
2019-01-08T01:04:08.564Z,9.23
2019-01-08T01:06:40.521Z,11.37
2019-01-08T01:09:12.094Z,10.37
2019-01-08T01:11:44.095Z,8.87
2019-01-08T01:14:15.498Z,10.90
2019-01-08T01:16:46.600Z,11.93
2019-01-08T01:19:19.059Z,11.47
2019-01-08T01:21:50.679Z,9.40
2019-01-08T01:24:23.073Z,9.27
2019-01-08T01:26:54.695Z,7.97
2019-01-08T01:29:27.033Z,11.70
2019-01-08T01:31:59.213Z,12.03
2019-01-08T01:34:30.673Z,8.53
2019-01-08T01:37:01.848Z,9.20
2019-01-08T01:39:33.667Z,10.87
2019-01-08T01:42:05.915Z,8.00
2019-01-08T01:44:36.809Z,9.57
2019-01-08T01:47:08.159Z,6.40
2019-01-08T01:49:39.422Z,7.53
2019-01-08T01:52:11.683Z,7.93
2019-01-08T01:54:43.691Z,7.27
2019-01-08T01:57:15.139Z,7.27
2019-01-08T01:59:46.870Z,8.10
2019-01-08T02:02:18.630Z,5.50
2019-01-08T02:04:50.470Z,12.37
2019-01-08T02:07:22.606Z,9.53
2019-01-08T02:09:54.968Z,9.27
2019-01-08T02:12:27.060Z,5.60
2019-01-08T02:14:58.110Z,11.97
2019-01-08T02:17:50.200Z,7.20
2019-01-08T02:20:22.005Z,7.33
2019-01-08T02:22:53.920Z,8.50
2019-01-08T02:25:25.555Z,7.60
2019-01-08T02:27:57.166Z,8.00
2019-01-08T02:30:30.312Z,8.93
2019-01-08T02:33:02.056Z,13.33
2019-01-08T02:35:54.049Z,10.73
2019-01-08T02:38:25.195Z,6.73
2019-01-08T02:40:56.707Z,6.90
2019-01-08T02:43:28.519Z,12.40
2019-01-08T02:46:00.244Z,12.23
2019-01-08T02:48:32.343Z,8.77
2019-01-08T02:51:03.630Z,10.60
2019-01-08T02:53:35.260Z,9.47
2019-01-08T02:56:07.248Z,13.47
2019-01-08T02:58:39.356Z,9.83
2019-01-08T03:01:10.518Z,12.77
2019-01-08T03:03:42.149Z,7.63
2019-01-08T03:06:14.545Z,11.27
2019-01-08T03:08:47.053Z,11.07
2019-01-08T03:11:19.107Z,11.77
2019-01-08T03:13:50.614Z,7.50
2019-01-08T03:16:22.190Z,10.70
2019-01-08T03:18:54.028Z,10.20
2019-01-08T03:21:25.666Z,10.13
2019-01-08T03:23:57.447Z,7.40
2019-01-08T03:26:29.487Z,10.27
2019-01-08T03:29:00.668Z,11.13
2019-01-08T03:31:32.431Z,11.27
2019-01-08T03:34:04.588Z,9.50
2019-01-08T03:36:36.763Z,9.90
2019-01-08T03:39:08.630Z,9.53
2019-01-08T03:41:39.857Z,12.90
2019-01-08T03:44:12.295Z,8.33
2019-01-08T03:46:44.015Z,11.40
2019-01-08T03:49:15.516Z,10.20
2019-01-08T03:51:47.300Z,10.43
2019-01-08T03:54:18.472Z,7.60
2019-01-08T03:56:49.801Z,11.47
2019-01-08T03:59:22.027Z,8.67
2019-01-08T04:01:53.335Z,7.50
2019-01-08T04:04:26.655Z,7.87
2019-01-08T04:06:59.253Z,6.23
2019-01-08T04:09:31.480Z,12.63
2019-01-08T04:12:03.390Z,12.73
2019-01-08T04:14:34.856Z,14.50
2019-01-08T04:17:06.297Z,12.13
2019-01-08T04:19:37.417Z,9.97
2019-01-08T04:22:08.811Z,11.00
2019-01-08T04:24:40.376Z,8.70
2019-01-08T04:27:12.183Z,6.63
2019-01-08T04:29:50.389Z,12.03
2019-01-08T04:32:17.012Z,9.57
2019-01-08T04:34:49.585Z,10.17
2019-01-08T04:37:21.501Z,7.73
2019-01-08T04:39:52.618Z,9.33
2019-01-08T04:42:23.916Z,9.07
2019-01-08T04:44:55.538Z,8.27
2019-01-08T04:47:27.472Z,8.43
2019-01-08T04:49:59.841Z,7.23
2019-01-08T04:52:31.494Z,10.40
2019-01-08T04:55:03.152Z,9.70
2019-01-08T04:57:35.450Z,11.20
2019-01-08T05:00:07.639Z,8.47
2019-01-08T05:02:39.649Z,7.10
2019-01-08T05:05:11.392Z,9.60
2019-01-08T05:07:43.463Z,9.23
2019-01-08T05:10:15.703Z,6.93
2019-01-08T05:12:48.091Z,6.93
2019-01-08T05:15:20.652Z,11.47
2019-01-08T05:17:52.438Z,8.37
2019-01-08T05:20:24.335Z,8.23
2019-01-08T05:22:55.738Z,7.90
2019-01-08T05:25:27.319Z,8.40
2019-01-08T05:27:58.817Z,7.70
2019-01-08T05:30:31.059Z,9.30
2019-01-08T05:33:04.138Z,9.47
2019-01-08T05:35:35.933Z,13.13
2019-01-08T05:38:07.349Z,9.90
2019-01-08T05:40:40.101Z,10.27
2019-01-08T05:43:12.805Z,11.27
2019-01-08T05:45:45.377Z,8.30
2019-01-08T05:48:17.259Z,7.73
2019-01-08T05:50:49.566Z,11.43
2019-01-08T05:53:21.676Z,10.63
2019-01-08T05:55:53.983Z,11.17
2019-01-08T05:58:25.820Z,8.50
2019-01-08T06:00:58.038Z,9.97
2019-01-08T06:03:31.023Z,8.17
2019-01-08T06:06:03.186Z,11.80
2019-01-08T06:08:35.880Z,10.57
2019-01-08T06:11:08.304Z,6.33
2019-01-08T06:13:39.808Z,8.20
2019-01-08T06:16:11.448Z,11.27
2019-01-08T06:18:44.315Z,13.33
2019-01-08T06:21:15.894Z,12.80
2019-01-08T06:23:47.240Z,14.13
2019-01-08T06:26:18.962Z,13.30
2019-01-08T06:28:51.063Z,10.00
2019-01-08T06:31:22.889Z,6.17
2019-01-08T06:33:54.633Z,6.30
2019-01-08T06:36:26.296Z,4.60
2019-01-08T06:38:58.670Z,9.40
2019-01-08T06:41:29.848Z,5.20
2019-01-08T06:44:01.612Z,8.70
2019-01-08T06:46:33.317Z,5.67
2019-01-08T06:49:04.315Z,4.17
2019-01-08T06:51:35.903Z,6.93
2019-01-08T06:54:07.411Z,7.50
2019-01-08T06:56:38.900Z,10.53
2019-01-08T06:59:11.190Z,9.93
2019-01-08T07:01:42.789Z,4.40
2019-01-08T07:04:13.840Z,9.43
2019-01-08T07:06:45.092Z,9.37
2019-01-08T07:09:16.053Z,6.77
2019-01-08T07:11:48.277Z,6.60
2019-01-08T07:14:20.784Z,5.80
2019-01-08T07:16:52.407Z,8.10
2019-01-08T07:19:24.376Z,8.90
2019-01-08T07:21:56.214Z,10.17
2019-01-08T07:24:28.543Z,7.23
2019-01-08T07:27:00.319Z,9.03
2019-01-08T07:29:32.429Z,9.07
2019-01-08T07:32:03.994Z,10.83
2019-01-08T07:34:36.391Z,13.23
2019-01-08T07:37:08.147Z,11.53
2019-01-08T07:39:40.613Z,7.27
2019-01-08T07:42:12.961Z,12.07
2019-01-08T07:44:45.468Z,8.80
2019-01-08T07:47:17.328Z,13.97
2019-01-08T07:49:49.868Z,11.30
2019-01-08T07:52:22.239Z,11.90
2019-01-08T07:54:53.607Z,10.73
2019-01-08T07:57:25.862Z,16.00
2019-01-08T07:59:57.803Z,11.80
2019-01-08T08:02:30.098Z,12.57
2019-01-08T08:05:02.540Z,10.53
2019-01-08T08:07:35.133Z,14.17
2019-01-08T08:10:08.339Z,16.90
2019-01-08T08:12:40.617Z,15.57
2019-01-08T08:15:12.922Z,11.47
2019-01-08T08:17:44.824Z,9.43
2019-01-08T08:20:16.889Z,12.27
2019-01-08T08:22:48.922Z,8.57
2019-01-08T08:25:23.123Z,12.97
2019-01-08T08:27:55.143Z,9.50
2019-01-08T08:30:26.971Z,10.53
2019-01-08T08:32:59.158Z,11.57
2019-01-08T08:35:30.817Z,13.53
2019-01-08T08:38:02.939Z,14.63
2019-01-08T08:40:35.392Z,13.07
2019-01-08T08:43:08.869Z,10.77
2019-01-08T08:45:40.891Z,12.17
2019-01-08T08:48:13.273Z,7.80
2019-01-08T08:50:46.160Z,9.87
2019-01-08T08:53:17.977Z,11.70
2019-01-08T08:55:49.862Z,12.47
2019-01-08T08:58:21.917Z,11.03
2019-01-08T09:00:54.075Z,12.80
2019-01-08T09:03:25.778Z,11.83
2019-01-08T09:05:58.197Z,9.13
2019-01-08T09:08:30.816Z,12.33
2019-01-08T09:11:02.966Z,10.93
2019-01-08T09:13:35.502Z,10.07
2019-01-08T09:16:07.882Z,8.93
2019-01-08T09:18:39.508Z,8.83
2019-01-08T09:21:11.835Z,7.00
2019-01-08T09:23:42.686Z,9.07
2019-01-08T09:26:14.352Z,10.30
2019-01-08T09:29:04.931Z,7.63
2019-01-08T09:31:36.990Z,12.77
2019-01-08T09:34:08.484Z,7.80
2019-01-08T09:36:39.488Z,10.20
2019-01-08T09:39:10.714Z,10.10
2019-01-08T09:41:41.974Z,7.70
2019-01-08T09:44:13.125Z,9.10
2019-01-08T09:46:44.827Z,8.33
2019-01-08T09:49:16.504Z,9.57
2019-01-08T09:51:47.978Z,8.87
2019-01-08T09:54:19.774Z,8.97
2019-01-08T09:56:50.796Z,7.23
2019-01-08T09:59:22.582Z,7.67
2019-01-08T10:01:54.339Z,9.87
2019-01-08T10:04:25.468Z,8.40
2019-01-08T10:06:56.751Z,5.50
2019-01-08T10:09:28.345Z,7.17
2019-01-08T10:11:59.852Z,7.37
2019-01-08T10:14:31.192Z,5.93
2019-01-08T10:17:02.424Z,8.73
2019-01-08T10:19:33.762Z,7.63
2019-01-08T10:22:04.645Z,9.93
2019-01-08T10:24:35.616Z,9.60
2019-01-08T10:27:07.316Z,7.43
2019-01-08T10:29:39.302Z,7.40
2019-01-08T10:32:11.651Z,8.27
2019-01-08T10:34:42.551Z,8.07
2019-01-08T10:37:13.846Z,6.60
2019-01-08T10:39:45.209Z,6.57
2019-01-08T10:42:16.533Z,8.83
2019-01-08T10:44:48.470Z,9.17
2019-01-08T10:47:19.441Z,7.17
2019-01-08T10:49:50.521Z,10.00
2019-01-08T10:52:21.359Z,5.20
2019-01-08T10:54:53.374Z,5.97
2019-01-08T10:57:25.456Z,7.70
2019-01-08T10:59:57.160Z,10.47
2019-01-08T11:02:28.715Z,8.37
2019-01-08T11:05:00.842Z,7.17
2019-01-08T11:07:32.705Z,6.63
2019-01-08T11:10:03.657Z,6.90
2019-01-08T11:12:35.397Z,7.03
2019-01-08T11:15:07.675Z,8.23
2019-01-08T11:17:38.566Z,9.50
2019-01-08T11:20:10.533Z,7.60
2019-01-08T11:22:42.088Z,6.97
2019-01-08T11:25:14.709Z,8.07
2019-01-08T11:27:46.751Z,5.43
2019-01-08T11:30:19.463Z,8.40
2019-01-08T11:32:51.904Z,8.57
2019-01-08T11:35:24.127Z,9.73
2019-01-08T11:37:56.340Z,8.03
2019-01-08T11:40:28.452Z,8.33
2019-01-08T11:43:00.594Z,8.63
2019-01-08T11:45:32.851Z,5.23
2019-01-08T11:48:04.911Z,8.77
2019-01-08T11:50:36.704Z,7.83
2019-01-08T11:53:09.173Z,9.30
2019-01-08T11:55:41.240Z,7.67
2019-01-08T11:58:12.772Z,10.13
2019-01-08T12:00:43.883Z,7.27
2019-01-08T12:03:15.288Z,9.37
2019-01-08T12:05:47.961Z,9.23
2019-01-08T12:08:20.307Z,11.87
2019-01-08T12:10:51.992Z,8.30
2019-01-08T12:13:24.111Z,4.87
2019-01-08T12:15:56.991Z,6.33
2019-01-08T12:18:29.032Z,7.03
2019-01-08T12:21:01.068Z,8.57
2019-01-08T12:23:33.652Z,9.90
2019-01-08T12:26:05.594Z,12.73
2019-01-08T12:28:37.659Z,7.33
2019-01-08T12:31:09.909Z,8.77
2019-01-08T12:33:42.747Z,9.43
2019-01-08T12:36:14.503Z,12.70
2019-01-08T12:38:46.556Z,6.13
2019-01-08T12:41:19.171Z,10.67
2019-01-08T12:43:51.205Z,8.53
2019-01-08T12:46:23.531Z,7.10
2019-01-08T12:48:56.170Z,4.70
2019-01-08T12:51:28.008Z,12.33
2019-01-08T12:54:00.442Z,7.30
2019-01-08T12:56:32.116Z,8.07
2019-01-08T12:59:04.585Z,10.07
2019-01-08T13:01:36.440Z,16.33
2019-01-08T13:04:08.604Z,14.20
2019-01-08T13:06:40.464Z,13.80
2019-01-08T13:09:11.874Z,9.73
2019-01-08T13:11:43.981Z,13.97
2019-01-08T13:14:15.610Z,15.63
2019-01-08T13:16:48.014Z,14.17
2019-01-08T13:19:19.665Z,14.47
2019-01-08T13:21:53.158Z,16.40
2019-01-08T13:24:25.375Z,13.37
2019-01-08T13:26:58.009Z,16.40
2019-01-08T13:29:29.533Z,14.53
2019-01-08T13:32:01.956Z,14.90
2019-01-08T13:34:33.733Z,15.47
2019-01-08T13:37:06.075Z,16.87
2019-01-08T13:39:37.745Z,18.90
2019-01-08T13:42:09.632Z,21.60
2019-01-08T13:44:41.548Z,25.43
2019-01-08T13:47:13.307Z,20.20
2019-01-08T13:49:46.596Z,19.40
2019-01-08T13:52:17.969Z,15.23
2019-01-08T13:54:50.233Z,14.23
2019-01-08T13:57:21.730Z,13.03
2019-01-08T13:59:53.961Z,15.30
2019-01-08T14:02:31.819Z,12.53
2019-01-08T14:04:59.510Z,12.73
2019-01-08T14:07:31.379Z,12.17
2019-01-08T14:10:03.502Z,12.67
2019-01-08T14:12:35.748Z,13.23
2019-01-08T14:15:08.071Z,13.00
2019-01-08T14:17:40.713Z,9.97
2019-01-08T14:20:13.018Z,11.83
2019-01-08T14:22:44.933Z,15.23
2019-01-08T14:25:16.447Z,14.23
2019-01-08T14:27:48.434Z,14.53
2019-01-08T14:30:20.449Z,13.90
2019-01-08T14:32:52.810Z,15.07
2019-01-08T14:35:25.612Z,17.33
2019-01-08T14:37:57.945Z,17.50
2019-01-08T14:40:30.934Z,18.47
2019-01-08T14:43:02.934Z,16.73
2019-01-08T14:45:35.712Z,19.03
2019-01-08T14:48:07.696Z,15.87
2019-01-08T14:50:40.081Z,20.03
2019-01-08T14:53:12.492Z,17.70
2019-01-08T14:55:45.148Z,16.40
2019-01-08T14:58:17.201Z,15.47
2019-01-08T15:00:49.340Z,16.53
2019-01-08T15:03:20.469Z,17.03
2019-01-08T15:05:52.191Z,18.40
2019-01-08T15:08:24.000Z,20.50
2019-01-08T15:10:55.967Z,25.93
2019-01-08T15:13:29.049Z,31.10
2019-01-08T15:16:01.266Z,28.97
2019-01-08T15:18:34.176Z,29.03
2019-01-08T15:21:06.853Z,30.90
2019-01-08T15:23:38.548Z,31.47
2019-01-08T15:26:10.744Z,30.70
2019-01-08T15:28:43.156Z,30.30
2019-01-08T15:31:16.731Z,26.37
2019-01-08T15:33:49.737Z,25.70
2019-01-08T15:36:21.297Z,26.40
2019-01-08T15:38:53.941Z,28.63
2019-01-08T15:41:26.763Z,29.13
2019-01-08T15:44:00.194Z,24.90
2019-01-08T15:46:32.349Z,25.47
2019-01-08T15:49:04.237Z,24.40
2019-01-08T15:51:36.222Z,26.03
2019-01-08T15:54:08.135Z,25.73
2019-01-08T15:56:40.386Z,26.90
2019-01-08T15:59:12.441Z,27.27
2019-01-08T16:01:45.146Z,28.13
2019-01-08T16:04:17.623Z,27.83
2019-01-08T16:06:49.047Z,27.83
2019-01-08T16:09:20.665Z,26.80
2019-01-08T16:11:52.639Z,27.70
2019-01-08T16:14:24.392Z,25.67
2019-01-08T16:16:56.769Z,25.07
2019-01-08T16:19:29.174Z,26.27
2019-01-08T16:22:01.259Z,27.10
2019-01-08T16:24:33.380Z,27.50
2019-01-08T16:27:05.346Z,27.07
2019-01-08T16:29:37.613Z,25.60
2019-01-08T16:32:08.985Z,26.60
2019-01-08T16:34:40.811Z,26.63
2019-01-08T16:37:12.869Z,26.93
2019-01-08T16:39:44.470Z,24.87
2019-01-08T16:42:16.262Z,27.97
2019-01-08T16:44:48.597Z,26.83
2019-01-08T16:47:21.116Z,25.80
2019-01-08T16:49:52.832Z,25.93
2019-01-08T16:52:25.815Z,27.40
2019-01-08T16:54:57.900Z,27.50
2019-01-08T16:57:30.195Z,25.23
2019-01-08T17:00:02.773Z,25.60
2019-01-08T17:02:34.882Z,26.20
2019-01-08T17:05:06.942Z,26.77
2019-01-08T17:07:38.781Z,25.10
2019-01-08T17:10:11.946Z,26.07
2019-01-08T17:12:43.912Z,25.07
2019-01-08T17:15:15.975Z,25.60
2019-01-08T17:17:47.598Z,26.57
2019-01-08T17:20:19.980Z,25.73
2019-01-08T17:22:53.320Z,25.83
2019-01-08T17:25:25.281Z,27.07
2019-01-08T17:27:57.050Z,27.27
2019-01-08T17:30:29.492Z,26.90
2019-01-08T17:33:03.022Z,25.77
2019-01-08T17:35:35.070Z,26.77
2019-01-08T17:38:06.942Z,26.83
2019-01-08T17:40:38.431Z,28.33
2019-01-08T17:43:10.967Z,28.30
2019-01-08T17:45:42.951Z,27.23
2019-01-08T17:48:14.893Z,25.80
2019-01-08T17:50:47.132Z,25.67
2019-01-08T17:53:19.711Z,26.20
2019-01-08T17:55:51.882Z,27.53
2019-01-08T17:58:47.156Z,29.97
2019-01-08T18:01:25.157Z,26.97
2019-01-08T18:03:57.445Z,26.83
2019-01-08T18:06:28.900Z,26.97
2019-01-08T18:09:01.299Z,26.77
2019-01-08T18:11:33.079Z,31.73
2019-01-08T18:14:04.956Z,29.47
2019-01-08T18:16:36.989Z,30.63
2019-01-08T18:19:09.546Z,28.20
2019-01-08T18:21:41.052Z,31.87
2019-01-08T18:24:13.768Z,31.20
2019-01-08T18:26:45.818Z,28.53
2019-01-08T18:29:18.018Z,29.47
2019-01-08T18:31:49.925Z,35.40
2019-01-08T18:34:22.197Z,29.83
2019-01-08T18:36:54.512Z,32.63
2019-01-08T18:39:26.301Z,39.23
2019-01-08T18:41:58.193Z,56.03
2019-01-08T18:44:31.990Z,55.77
2019-01-08T18:47:04.362Z,55.27
2019-01-08T18:49:36.776Z,47.93
2019-01-08T18:52:08.976Z,39.90
2019-01-08T18:54:40.899Z,36.30
2019-01-08T18:57:13.353Z,31.70
2019-01-08T18:59:45.827Z,40.23
2019-01-08T19:02:18.239Z,40.73
2019-01-08T19:04:50.565Z,35.93
2019-01-08T19:07:25.067Z,36.47
2019-01-08T19:10:13.745Z,36.93
2019-01-08T19:12:46.572Z,37.27
2019-01-08T19:15:19.116Z,39.33
2019-01-08T19:17:52.010Z,38.63
2019-01-08T19:20:24.405Z,39.00
2019-01-08T19:22:56.902Z,35.83
2019-01-08T19:25:29.421Z,38.50
2019-01-08T19:28:02.091Z,39.00
2019-01-08T19:30:35.222Z,38.60
2019-01-08T19:33:08.128Z,40.17
2019-01-08T19:35:40.096Z,39.50
2019-01-08T19:38:12.605Z,36.50
2019-01-08T19:40:45.294Z,39.63
2019-01-08T19:43:17.524Z,41.13
2019-01-08T19:45:49.808Z,41.67
2019-01-08T19:48:22.211Z,44.93
2019-01-08T19:51:13.123Z,50.60
2019-01-08T19:53:45.361Z,49.30
2019-01-08T19:56:17.519Z,49.20
2019-01-08T19:58:49.653Z,52.33
2019-01-08T20:01:22.310Z,48.93
2019-01-08T20:03:54.582Z,42.93
2019-01-08T20:06:27.780Z,45.23
2019-01-08T20:09:00.116Z,47.80
2019-01-08T20:11:33.050Z,43.00
2019-01-08T20:14:05.627Z,41.53
2019-01-08T20:16:37.820Z,38.10
2019-01-08T20:19:10.592Z,39.00
2019-01-08T20:21:42.563Z,39.67
2019-01-08T20:24:14.409Z,39.03
2019-01-08T20:26:46.744Z,36.83
2019-01-08T20:29:18.977Z,40.40
2019-01-08T20:31:51.204Z,37.10
2019-01-08T20:34:26.873Z,41.20
2019-01-08T20:36:58.106Z,39.57
2019-01-08T20:39:30.201Z,39.30
2019-01-08T20:42:02.622Z,36.57
2019-01-08T20:44:35.042Z,37.97
2019-01-08T20:47:06.792Z,35.20
2019-01-08T20:49:39.963Z,33.67
2019-01-08T20:52:12.294Z,33.83
2019-01-08T20:54:44.551Z,35.10
2019-01-08T20:57:17.194Z,32.97
2019-01-08T20:59:49.981Z,31.73
2019-01-08T21:02:21.912Z,32.37
2019-01-08T21:04:54.744Z,32.87
2019-01-08T21:07:27.080Z,32.93
2019-01-08T21:09:59.408Z,33.43
2019-01-08T21:12:32.016Z,32.53
2019-01-08T21:15:03.932Z,35.73
2019-01-08T21:17:35.687Z,33.90
2019-01-08T21:20:08.104Z,33.03
2019-01-08T21:22:41.466Z,34.93
2019-01-08T21:25:13.049Z,37.13
2019-01-08T21:27:45.304Z,35.47
2019-01-08T21:30:17.962Z,35.57
2019-01-08T21:32:50.366Z,35.73
2019-01-08T21:35:23.035Z,34.87
2019-01-08T21:37:55.266Z,37.97
2019-01-08T21:40:27.793Z,36.93
2019-01-08T21:43:00.331Z,36.63
2019-01-08T21:45:32.729Z,36.43
2019-01-08T21:48:05.527Z,37.67
2019-01-08T21:50:37.766Z,35.80
2019-01-08T21:53:32.498Z,37.83
2019-01-08T21:56:04.978Z,34.23
2019-01-08T21:58:37.296Z,35.30
2019-01-08T22:01:09.509Z,36.20
2019-01-08T22:03:41.680Z,34.43
2019-01-08T22:06:13.948Z,34.40
2019-01-08T22:08:45.674Z,35.87
2019-01-08T22:11:17.415Z,36.33
2019-01-08T22:13:49.789Z,34.97
2019-01-08T22:16:22.013Z,37.63
2019-01-08T22:18:54.795Z,36.40
2019-01-08T22:21:26.596Z,36.63
2019-01-08T22:24:19.549Z,36.83
2019-01-08T22:26:51.952Z,37.17
2019-01-08T22:29:24.429Z,38.73
2019-01-08T22:31:57.180Z,37.57
2019-01-08T22:34:30.260Z,39.17
2019-01-08T22:37:02.284Z,36.10
2019-01-08T22:39:33.811Z,35.93
2019-01-08T22:42:05.262Z,34.10
2019-01-08T22:44:37.631Z,31.80
2019-01-08T22:47:09.226Z,28.53
2019-01-08T22:49:41.464Z,26.70
2019-01-08T22:52:13.190Z,28.03
2019-01-08T22:54:45.005Z,27.10
2019-01-08T22:57:16.729Z,26.10
2019-01-08T22:59:48.565Z,28.03
2019-01-08T23:02:20.525Z,28.47
2019-01-08T23:04:52.066Z,30.00
2019-01-08T23:07:23.651Z,30.63
2019-01-08T23:09:55.884Z,30.97
2019-01-08T23:12:27.695Z,29.60
2019-01-08T23:14:59.809Z,30.57
2019-01-08T23:17:31.850Z,28.93
2019-01-08T23:20:03.524Z,27.90
2019-01-08T23:22:35.222Z,30.43
2019-01-08T23:25:06.450Z,29.80
2019-01-08T23:27:38.490Z,28.67
2019-01-08T23:30:10.470Z,28.87
2019-01-08T23:32:42.629Z,29.23
2019-01-08T23:35:19.459Z,29.40
2019-01-08T23:37:48.709Z,28.77
2019-01-08T23:40:20.360Z,27.50
2019-01-08T23:42:52.355Z,27.87
2019-01-08T23:45:23.473Z,27.13
2019-01-08T23:47:54.908Z,27.87
2019-01-08T23:50:26.914Z,28.80
2019-01-08T23:53:08.276Z,28.27
2019-01-08T23:55:50.901Z,27.63
2019-01-08T23:58:22.450Z,28.93
